createdAt,value
2022-10-15T00:01:27.406Z,30.08
2022-10-15T00:03:55.611Z,69.82
2022-10-15T00:06:22.234Z,22.85
2022-10-15T00:08:49.007Z,62.53
2022-10-15T00:11:21.675Z,40.35
2022-10-15T00:13:55.022Z,24.33
2022-10-15T00:16:23.901Z,20.55
2022-10-15T00:18:52.214Z,17.35
2022-10-15T00:21:20.465Z,27.02
2022-10-15T00:23:56.277Z,19.33
2022-10-15T00:26:26.082Z,25.10
2022-10-15T00:28:55.294Z,130.63
2022-10-15T00:31:24.522Z,113.43
2022-10-15T00:33:54.181Z,42.78
2022-10-15T00:36:25.623Z,22.63
2022-10-15T00:38:52.602Z,23.02
2022-10-15T00:41:35.332Z,14.00
2022-10-15T00:44:26.537Z,16.75
2022-10-15T00:47:06.793Z,20.83
2022-10-15T00:49:36.199Z,14.48
2022-10-15T00:52:12.295Z,38.55
2022-10-15T00:54:48.098Z,11.15
2022-10-15T00:57:14.753Z,10.45
2022-10-15T00:59:49.879Z,15.80
2022-10-15T01:02:19.193Z,12.07
2022-10-15T01:04:48.077Z,12.43
2022-10-15T01:07:14.585Z,22.65
2022-10-15T01:09:44.469Z,17.35
2022-10-15T01:12:20.255Z,12.40
2022-10-15T01:15:04.555Z,12.50
2022-10-15T01:17:55.641Z,18.08
2022-10-15T01:20:52.229Z,10.07
2022-10-15T01:24:01.276Z,11.63
2022-10-15T01:26:52.596Z,15.05
2022-10-15T01:29:34.504Z,15.68
2022-10-15T01:32:07.731Z,24.90
2022-10-15T01:34:54.977Z,23.27
2022-10-15T01:37:40.928Z,26.50
2022-10-15T01:40:36.245Z,25.17
2022-10-15T01:43:06.852Z,25.27
2022-10-15T01:46:09.247Z,26.40
2022-10-15T01:48:43.105Z,29.67
2022-10-15T01:51:12.300Z,33.67
2022-10-15T01:53:40.230Z,32.20
2022-10-15T01:56:12.464Z,28.83
2022-10-15T01:58:43.329Z,32.38
2022-10-15T02:01:10.501Z,36.15
2022-10-15T02:04:02.338Z,29.48
2022-10-15T02:06:41.799Z,28.67
2022-10-15T02:09:32.119Z,30.23
2022-10-15T02:12:17.838Z,30.85
2022-10-15T02:14:58.976Z,27.02
2022-10-15T02:17:41.503Z,28.05
2022-10-15T02:20:20.670Z,31.52
2022-10-15T02:22:57.033Z,28.90
2022-10-15T02:25:26.028Z,32.88
2022-10-15T02:27:56.874Z,29.58
2022-10-15T02:30:24.688Z,32.17
2022-10-15T02:32:54.911Z,28.67
2022-10-15T02:35:24.454Z,28.95
2022-10-15T02:37:54.131Z,27.88
2022-10-15T02:40:24.935Z,30.42
2022-10-15T02:42:52.119Z,32.80
2022-10-15T02:45:21.138Z,28.52
2022-10-15T02:47:47.600Z,29.17
2022-10-15T02:50:14.512Z,31.63
2022-10-15T02:52:41.189Z,28.52
2022-10-15T02:55:08.150Z,27.05
2022-10-15T02:57:35.199Z,25.60
2022-10-15T03:00:02.611Z,28.23
2022-10-15T03:02:29.180Z,29.45
2022-10-15T03:04:56.372Z,29.70
2022-10-15T03:07:23.874Z,29.58
2022-10-15T03:09:50.915Z,28.50
2022-10-15T03:12:17.618Z,25.70
2022-10-15T03:14:49.729Z,26.40
2022-10-15T03:17:16.439Z,28.73
2022-10-15T03:19:43.153Z,24.70
2022-10-15T03:22:10.635Z,28.58
2022-10-15T03:24:52.010Z,25.23
2022-10-15T03:27:23.785Z,30.02
2022-10-15T03:29:50.476Z,26.67
2022-10-15T03:32:17.153Z,24.95
2022-10-15T03:34:48.129Z,27.17
2022-10-15T03:37:17.207Z,27.65
2022-10-15T03:39:43.791Z,29.25
2022-10-15T03:42:11.187Z,27.05
2022-10-15T03:44:44.486Z,30.60
2022-10-15T03:47:15.187Z,32.15
2022-10-15T03:49:45.260Z,30.17
2022-10-15T03:52:12.011Z,37.30
2022-10-15T03:54:40.329Z,31.77
2022-10-15T03:57:07.987Z,30.35
2022-10-15T03:59:39.433Z,33.08
2022-10-15T04:02:06.456Z,31.42
2022-10-15T04:04:34.436Z,34.95
2022-10-15T04:07:00.946Z,33.15
2022-10-15T04:09:29.450Z,33.05
2022-10-15T04:12:16.685Z,33.28
2022-10-15T04:14:47.422Z,38.65
2022-10-15T04:17:14.129Z,34.35
2022-10-15T04:19:44.258Z,35.22
2022-10-15T04:22:10.929Z,37.10
2022-10-15T04:24:54.960Z,35.13
2022-10-15T04:27:28.765Z,37.35
2022-10-15T04:30:05.715Z,38.67
2022-10-15T04:32:32.841Z,40.13
2022-10-15T04:35:02.804Z,36.17
2022-10-15T04:37:47.981Z,38.67
2022-10-15T04:40:15.341Z,36.92
2022-10-15T04:42:42.228Z,35.25
2022-10-15T04:45:10.285Z,38.17
2022-10-15T04:47:37.884Z,39.35
2022-10-15T04:50:09.881Z,41.80
2022-10-15T04:52:54.724Z,42.50
2022-10-15T04:55:23.775Z,37.42
2022-10-15T04:57:56.092Z,42.58
2022-10-15T05:00:28.057Z,41.78
2022-10-15T05:03:16.197Z,40.85
2022-10-15T05:05:50.189Z,39.28
2022-10-15T05:08:16.721Z,41.00
2022-10-15T05:11:04.609Z,36.25
2022-10-15T05:13:32.620Z,40.17
2022-10-15T05:16:17.397Z,45.03
2022-10-15T05:18:47.118Z,55.33
2022-10-15T05:21:15.003Z,51.42
2022-10-15T05:23:45.010Z,48.03
2022-10-15T05:26:32.582Z,49.03
2022-10-15T05:29:00.525Z,48.55
2022-10-15T05:31:32.166Z,52.05
2022-10-15T05:34:16.636Z,44.05
2022-10-15T05:36:49.982Z,49.22
2022-10-15T05:39:16.633Z,49.53
2022-10-15T05:41:45.111Z,57.03
2022-10-15T05:44:16.031Z,49.38
2022-10-15T05:46:42.621Z,47.47
2022-10-15T05:49:13.755Z,50.08
2022-10-15T05:51:47.516Z,53.45
2022-10-15T05:54:24.443Z,49.40
2022-10-15T05:56:50.953Z,50.83
2022-10-15T05:59:17.450Z,46.00
2022-10-15T06:01:43.983Z,47.85
2022-10-15T06:04:12.294Z,47.28
2022-10-15T06:06:41.894Z,41.42
2022-10-15T06:09:08.377Z,43.83
2022-10-15T06:11:36.780Z,41.30
2022-10-15T06:14:05.222Z,40.53
2022-10-15T06:16:31.777Z,40.05
2022-10-15T06:18:58.298Z,39.40
2022-10-15T06:21:25.159Z,35.03
2022-10-15T06:23:55.656Z,35.10
2022-10-15T06:26:22.131Z,33.25
2022-10-15T06:28:49.262Z,37.63
2022-10-15T06:31:15.828Z,32.63
2022-10-15T06:33:42.300Z,32.72
2022-10-15T06:36:13.887Z,33.05
2022-10-15T06:38:40.470Z,28.33
2022-10-15T06:41:07.666Z,31.13
2022-10-15T06:43:35.516Z,34.72
2022-10-15T06:46:05.577Z,30.27
2022-10-15T06:48:32.953Z,31.65
2022-10-15T06:51:00.902Z,24.95
2022-10-15T06:53:28.686Z,37.65
2022-10-15T06:56:01.173Z,28.92
2022-10-15T06:58:28.600Z,28.73
2022-10-15T07:01:06.462Z,29.15
2022-10-15T07:03:33.318Z,28.85
2022-10-15T07:06:05.015Z,29.40
2022-10-15T07:08:32.313Z,31.02
2022-10-15T07:11:00.922Z,30.13
2022-10-15T07:13:29.974Z,27.50
2022-10-15T07:16:04.257Z,27.42
2022-10-15T07:18:30.913Z,27.88
2022-10-15T07:20:57.507Z,29.05
2022-10-15T07:23:27.078Z,30.48
2022-10-15T07:25:56.885Z,31.88
2022-10-15T07:28:23.534Z,28.45
2022-10-15T07:30:50.194Z,25.17
2022-10-15T07:33:16.747Z,29.48
2022-10-15T07:35:53.389Z,28.65
2022-10-15T07:38:20.111Z,33.40
2022-10-15T07:40:46.590Z,27.73
2022-10-15T07:43:13.157Z,30.50
2022-10-15T07:45:47.770Z,29.67
2022-10-15T07:48:14.244Z,30.40
2022-10-15T07:50:42.344Z,30.75
2022-10-15T07:53:09.780Z,32.20
2022-10-15T07:55:37.861Z,31.75
2022-10-15T07:58:05.822Z,30.50
2022-10-15T08:03:04.625Z,33.78
2022-10-15T08:05:31.275Z,28.52
2022-10-15T08:07:57.797Z,29.67
2022-10-15T08:10:24.308Z,25.23
2022-10-15T08:12:50.801Z,24.08
2022-10-15T08:15:18.256Z,22.42
2022-10-15T08:17:44.902Z,28.38
2022-10-15T08:20:14.993Z,22.08
2022-10-15T08:22:41.531Z,21.83
2022-10-15T08:25:11.374Z,22.38
2022-10-15T08:27:37.843Z,18.42
2022-10-15T08:30:05.658Z,20.20
2022-10-15T08:32:36.207Z,16.75
2022-10-15T08:35:07.602Z,17.77
2022-10-15T08:37:34.139Z,19.90
2022-10-15T08:40:00.581Z,16.83
2022-10-15T08:42:38.041Z,16.30
2022-10-15T08:45:16.709Z,15.27
2022-10-15T08:47:51.179Z,15.65
2022-10-15T08:50:20.694Z,15.83
2022-10-15T08:52:50.662Z,13.45
2022-10-15T08:55:21.068Z,12.60
2022-10-15T08:58:22.045Z,13.02
2022-10-15T09:01:01.369Z,14.45
2022-10-15T09:03:33.551Z,14.40
2022-10-15T09:06:19.314Z,10.38
2022-10-15T09:09:19.512Z,12.65
2022-10-15T09:12:02.675Z,11.43
2022-10-15T09:14:35.698Z,12.13
2022-10-15T09:17:14.356Z,14.23
2022-10-15T09:19:44.512Z,9.63
2022-10-15T09:22:17.563Z,13.07
2022-10-15T09:24:48.147Z,10.20
2022-10-15T09:27:14.612Z,10.23
2022-10-15T09:29:59.849Z,12.10
2022-10-15T09:32:51.925Z,10.23
2022-10-15T09:35:29.274Z,10.60
2022-10-15T09:38:33.440Z,12.05
2022-10-15T09:41:18.180Z,9.48
2022-10-15T09:43:48.500Z,10.07
2022-10-15T09:46:19.290Z,10.90
2022-10-15T09:49:02.255Z,12.88
2022-10-15T09:51:51.049Z,10.45
2022-10-15T09:54:28.764Z,13.18
2022-10-15T09:56:57.305Z,14.75
2022-10-15T09:59:25.198Z,14.48
2022-10-15T10:02:13.191Z,16.30
2022-10-15T10:04:44.567Z,17.10
2022-10-15T10:07:27.329Z,11.52
2022-10-15T10:09:56.190Z,14.75
2022-10-15T10:12:30.975Z,12.60
2022-10-15T10:15:21.650Z,13.63
2022-10-15T10:17:55.225Z,13.57
2022-10-15T10:20:24.325Z,12.93
2022-10-15T10:22:52.497Z,10.82
2022-10-15T10:25:37.505Z,14.40
2022-10-15T10:28:14.475Z,13.88
2022-10-15T10:30:50.078Z,14.63
2022-10-15T10:33:28.272Z,13.90
2022-10-15T10:35:56.461Z,10.32
2022-10-15T10:38:26.626Z,11.20
2022-10-15T10:40:59.079Z,10.27
2022-10-15T10:43:29.908Z,9.80
2022-10-15T10:46:18.040Z,11.25
2022-10-15T10:48:53.049Z,10.00
2022-10-15T10:51:25.588Z,10.07
2022-10-15T10:53:56.707Z,8.13
2022-10-15T10:56:30.023Z,8.25
2022-10-15T10:59:01.903Z,8.20
2022-10-15T11:01:29.409Z,7.13
2022-10-15T11:03:59.796Z,6.15
2022-10-15T11:06:41.500Z,7.30
2022-10-15T11:09:46.623Z,6.65
2022-10-15T11:12:51.469Z,6.35
2022-10-15T11:15:48.154Z,4.97
2022-10-15T11:18:27.013Z,5.97
2022-10-15T11:21:08.523Z,6.22
2022-10-15T11:24:02.463Z,4.22
2022-10-15T11:27:09.582Z,6.18
2022-10-15T11:30:11.038Z,4.72
2022-10-15T11:33:06.127Z,6.22
2022-10-15T11:35:53.337Z,7.93
2022-10-15T11:38:35.511Z,4.65
2022-10-15T11:41:10.551Z,7.93
2022-10-15T11:47:00.931Z,7.68
2022-10-15T11:50:05.680Z,4.15
2022-10-15T11:52:45.694Z,7.90
2022-10-15T11:55:45.690Z,4.30
2022-10-15T11:58:20.439Z,4.50
2022-10-15T12:00:51.866Z,6.53
2022-10-15T12:03:24.208Z,3.83
2022-10-15T12:05:59.849Z,3.05
2022-10-15T12:08:39.280Z,5.85
2022-10-15T12:14:13.641Z,3.08
2022-10-15T12:17:12.482Z,2.88
2022-10-15T12:19:48.617Z,4.40
2022-10-15T12:22:34.474Z,3.03
2022-10-15T12:25:02.062Z,2.95
2022-10-15T12:27:35.897Z,6.25
2022-10-15T12:30:02.515Z,4.20
2022-10-15T12:32:50.852Z,3.15
2022-10-15T12:35:19.025Z,3.55
2022-10-15T12:37:49.817Z,3.13
2022-10-15T12:40:22.513Z,3.20
2022-10-15T12:43:17.409Z,2.97
2022-10-15T12:45:57.002Z,3.80
2022-10-15T12:48:37.179Z,4.47
2022-10-15T12:51:22.132Z,2.72
2022-10-15T12:53:58.485Z,2.30
2022-10-15T12:56:36.138Z,2.55
2022-10-15T12:59:02.674Z,2.95
2022-10-15T13:01:42.254Z,3.40
2022-10-15T13:04:13.118Z,4.15
2022-10-15T13:06:40.219Z,2.50
2022-10-15T13:09:24.373Z,2.60
2022-10-15T13:11:52.943Z,2.95
2022-10-15T13:14:39.444Z,4.15
2022-10-15T13:17:15.348Z,2.50
2022-10-15T13:19:48.404Z,2.67
2022-10-15T13:22:27.279Z,2.97
2022-10-15T13:24:57.406Z,3.25
2022-10-15T13:27:32.140Z,3.90
2022-10-15T13:30:00.260Z,3.25
2022-10-15T13:32:31.041Z,3.15
2022-10-15T13:35:00.616Z,3.65
2022-10-15T13:37:32.538Z,2.65
2022-10-15T13:40:01.814Z,3.70
2022-10-15T13:42:33.191Z,2.65
2022-10-15T13:45:15.385Z,2.65
2022-10-15T13:47:46.968Z,5.03
2022-10-15T13:50:35.082Z,3.35
2022-10-15T13:53:12.153Z,3.42
2022-10-15T13:55:43.961Z,3.35
2022-10-15T13:58:16.241Z,3.45
2022-10-15T14:00:43.105Z,3.88
2022-10-15T14:03:16.000Z,3.58
2022-10-15T14:05:44.767Z,4.22
2022-10-15T14:08:19.001Z,4.30
2022-10-15T14:10:46.251Z,5.15
2022-10-15T14:13:13.215Z,4.65
2022-10-15T14:15:45.377Z,5.68
2022-10-15T14:18:15.310Z,2.70
2022-10-15T14:20:46.937Z,2.25
2022-10-15T14:23:22.343Z,1.80
2022-10-15T14:26:04.086Z,1.88
2022-10-15T14:28:33.969Z,2.13
2022-10-15T14:31:02.565Z,1.80
2022-10-15T14:33:32.839Z,2.55
2022-10-15T14:36:04.546Z,1.40
2022-10-15T14:38:31.782Z,1.50
2022-10-15T14:41:07.704Z,3.05
2022-10-15T14:43:37.599Z,1.50
2022-10-15T14:46:11.659Z,1.35
2022-10-15T14:48:40.604Z,3.28
2022-10-15T14:51:14.829Z,1.08
2022-10-15T14:53:46.881Z,2.92
2022-10-15T14:56:28.301Z,1.00
2022-10-15T14:58:57.384Z,1.65
2022-10-15T15:01:24.785Z,1.83
2022-10-15T15:04:32.431Z,1.85
2022-10-15T15:06:59.001Z,4.32
2022-10-15T15:09:25.556Z,2.03
2022-10-15T15:11:52.081Z,2.60
2022-10-15T15:14:25.158Z,0.88
2022-10-15T15:16:52.074Z,0.70
2022-10-15T15:19:18.550Z,0.60
2022-10-15T15:21:45.479Z,2.33
2022-10-15T15:24:13.057Z,1.17
2022-10-15T15:26:39.564Z,0.98
2022-10-15T15:29:13.913Z,1.88
2022-10-15T15:31:40.683Z,1.25
2022-10-15T15:34:09.267Z,1.30
2022-10-15T15:36:35.813Z,1.20
2022-10-15T15:39:02.291Z,2.83
2022-10-15T15:41:28.910Z,1.40
2022-10-15T15:43:56.929Z,0.95
2022-10-15T15:46:23.452Z,3.70
2022-10-15T15:48:49.964Z,1.58
2022-10-15T15:51:22.152Z,1.42
2022-10-15T15:53:56.333Z,1.25
2022-10-15T15:56:22.903Z,1.13
2022-10-15T15:58:50.473Z,4.13
2022-10-15T16:01:18.653Z,3.20
2022-10-15T16:03:45.517Z,3.53
2022-10-15T16:06:13.249Z,1.38
2022-10-15T16:08:39.738Z,3.00
2022-10-15T16:11:06.947Z,1.25
2022-10-15T16:13:34.023Z,1.58
2022-10-15T16:16:00.488Z,4.10
2022-10-15T16:18:27.016Z,2.70
2022-10-15T16:20:53.649Z,1.98
2022-10-15T16:23:20.170Z,1.73
2022-10-15T16:25:46.707Z,1.90
2022-10-15T16:28:13.240Z,2.97
2022-10-15T16:30:39.701Z,2.50
2022-10-15T16:35:38.381Z,2.08
2022-10-15T16:38:04.835Z,2.70
2022-10-15T16:40:31.425Z,2.10
2022-10-15T16:42:58.107Z,2.55
2022-10-15T16:45:24.845Z,1.35
2022-10-15T16:47:54.447Z,2.95
2022-10-15T16:50:20.983Z,2.70
2022-10-15T16:52:47.456Z,1.88
2022-10-15T16:55:16.603Z,1.80
2022-10-15T16:57:43.888Z,1.65
2022-10-15T17:00:11.019Z,2.55
2022-10-15T17:02:37.954Z,3.40
2022-10-15T17:05:04.823Z,4.13
2022-10-15T17:07:31.288Z,3.78
2022-10-15T17:09:57.739Z,1.33
2022-10-15T17:12:24.437Z,2.10
2022-10-15T17:14:51.705Z,2.75
2022-10-15T17:17:18.433Z,1.50
2022-10-15T17:19:44.927Z,1.65
2022-10-15T17:22:11.419Z,2.80
2022-10-15T17:24:42.418Z,3.38
2022-10-15T17:27:08.937Z,2.28
2022-10-15T17:29:35.421Z,4.20
2022-10-15T17:32:03.460Z,5.22
2022-10-15T17:34:31.842Z,3.53
2022-10-15T17:36:58.344Z,1.75
2022-10-15T17:39:27.056Z,2.92
2022-10-15T17:41:53.674Z,2.90
2022-10-15T17:44:21.779Z,2.45
2022-10-15T17:49:18.586Z,2.45
2022-10-15T17:51:45.877Z,2.97
2022-10-15T17:54:13.784Z,4.22
2022-10-15T17:56:40.700Z,7.30
2022-10-15T17:59:10.540Z,3.53
2022-10-15T18:01:57.258Z,4.93
2022-10-15T18:04:29.403Z,5.05
2022-10-15T18:06:56.017Z,3.75
2022-10-15T18:09:26.847Z,4.80
2022-10-15T18:11:58.620Z,4.72
2022-10-15T18:14:34.855Z,4.40
2022-10-15T18:17:01.607Z,4.15
2022-10-15T18:19:28.862Z,4.38
2022-10-15T18:21:56.080Z,5.97
2022-10-15T18:24:25.457Z,5.57
2022-10-15T18:26:52.779Z,4.00
2022-10-15T18:29:19.862Z,4.47
2022-10-15T18:31:53.387Z,4.07
2022-10-15T18:34:26.995Z,5.55
2022-10-15T18:36:53.512Z,5.38
2022-10-15T18:39:23.047Z,4.72
2022-10-15T18:41:49.503Z,4.93
2022-10-15T18:44:20.741Z,7.10
2022-10-15T18:46:47.501Z,3.65
2022-10-15T18:49:16.745Z,6.88
2022-10-15T18:51:45.995Z,9.43
2022-10-15T18:54:16.652Z,4.82
2022-10-15T18:56:43.408Z,5.30
2022-10-15T18:59:09.965Z,3.83
2022-10-15T19:01:41.954Z,7.38
2022-10-15T19:04:15.369Z,3.35
2022-10-15T19:06:45.151Z,7.65
2022-10-15T19:09:14.889Z,3.58
2022-10-15T19:11:43.754Z,3.97
2022-10-15T19:14:12.914Z,6.07
2022-10-15T19:16:39.465Z,5.72
2022-10-15T19:19:12.517Z,4.53
2022-10-15T19:21:39.229Z,7.43
2022-10-15T19:24:07.727Z,5.45
2022-10-15T19:26:34.671Z,8.65
2022-10-15T19:29:01.708Z,6.45
2022-10-15T19:31:30.957Z,6.45
2022-10-15T19:34:01.990Z,6.13
2022-10-15T19:37:00.352Z,5.70
2022-10-15T19:39:28.585Z,4.57
2022-10-15T19:41:55.237Z,4.25
2022-10-15T19:44:26.054Z,6.43
2022-10-15T19:46:53.492Z,5.38
2022-10-15T19:49:20.296Z,68.30
2022-10-15T19:51:48.377Z,18.38
2022-10-15T19:54:19.306Z,8.60
2022-10-15T19:56:45.810Z,7.85
2022-10-15T19:59:13.049Z,7.20
2022-10-15T20:01:39.598Z,6.65
2022-10-15T20:04:07.273Z,4.18
2022-10-15T20:06:35.836Z,6.03
2022-10-15T20:09:02.904Z,7.20
2022-10-15T20:11:29.701Z,6.15
2022-10-15T20:14:01.285Z,7.30
2022-10-15T20:16:32.450Z,4.53
2022-10-15T20:19:01.618Z,4.65
2022-10-15T20:21:28.159Z,5.43
2022-10-15T20:23:58.206Z,6.82
2022-10-15T20:26:24.729Z,5.68
2022-10-15T20:28:51.370Z,3.97
2022-10-15T20:31:28.015Z,5.13
2022-10-15T20:34:00.701Z,6.07
2022-10-15T20:36:27.429Z,5.63
2022-10-15T20:38:55.562Z,4.70
2022-10-15T20:41:22.018Z,8.07
2022-10-15T20:44:01.447Z,4.47
2022-10-15T20:46:33.068Z,5.97
2022-10-15T20:49:08.501Z,3.97
2022-10-15T20:51:45.560Z,3.33
2022-10-15T20:54:19.001Z,6.63
2022-10-15T20:56:45.961Z,4.82
2022-10-15T20:59:13.014Z,6.32
2022-10-15T21:01:40.450Z,8.43
2022-10-15T21:04:11.094Z,5.72
2022-10-15T21:06:37.558Z,11.30
2022-10-15T21:09:04.192Z,4.80
2022-10-15T21:11:31.082Z,4.97
2022-10-15T21:14:01.937Z,11.02
2022-10-15T21:16:28.772Z,5.28
2022-10-15T21:18:55.589Z,10.15
2022-10-15T21:21:22.105Z,11.88
2022-10-15T21:23:48.897Z,5.38
2022-10-15T21:26:19.504Z,4.25
2022-10-15T21:28:46.434Z,9.75
2022-10-15T21:31:16.099Z,5.65
2022-10-15T21:33:43.122Z,6.55
2022-10-15T21:36:24.916Z,5.10
2022-10-15T21:38:54.172Z,6.97
2022-10-15T21:41:25.114Z,4.13
2022-10-15T21:43:55.668Z,6.40
2022-10-15T21:46:22.612Z,8.73
2022-10-15T21:48:49.544Z,8.75
2022-10-15T21:51:19.289Z,7.72
2022-10-15T21:53:46.811Z,8.65
2022-10-15T21:56:14.832Z,8.90
2022-10-15T21:58:42.935Z,6.53
2022-10-15T22:01:32.810Z,6.82
2022-10-15T22:04:06.550Z,6.15
2022-10-15T22:06:33.714Z,5.82
2022-10-15T22:09:01.161Z,6.03
2022-10-15T22:11:30.186Z,6.38
2022-10-15T22:14:13.429Z,6.07
2022-10-15T22:16:40.908Z,11.77
2022-10-15T22:19:11.145Z,5.95
2022-10-15T22:21:38.950Z,8.50
2022-10-15T22:24:17.222Z,7.35
2022-10-15T22:26:51.877Z,8.50
2022-10-15T22:29:24.083Z,6.10
2022-10-15T22:31:51.678Z,5.80
2022-10-15T22:34:23.476Z,4.15
2022-10-15T22:36:50.192Z,4.78
2022-10-15T22:39:18.545Z,6.75
2022-10-15T22:41:46.517Z,6.78
2022-10-15T22:44:20.321Z,5.25
2022-10-15T22:46:49.141Z,5.20
2022-10-15T22:49:18.447Z,4.22
2022-10-15T22:51:45.478Z,4.22
2022-10-15T22:54:14.118Z,6.28
2022-10-15T22:56:40.705Z,5.90
2022-10-15T22:59:07.449Z,4.47
2022-10-15T23:01:35.412Z,4.32
2022-10-15T23:04:07.644Z,9.05
2022-10-15T23:06:36.760Z,5.32
2022-10-15T23:09:05.408Z,6.18
2022-10-15T23:11:38.130Z,6.90
2022-10-15T23:14:11.177Z,9.05
2022-10-15T23:16:43.900Z,5.40
2022-10-15T23:19:18.636Z,5.00
2022-10-15T23:21:47.018Z,7.95
2022-10-15T23:24:38.293Z,5.18
2022-10-15T23:27:04.748Z,7.75
2022-10-15T23:29:31.214Z,5.85
2022-10-15T23:31:57.729Z,6.00
2022-10-15T23:34:28.715Z,7.95
2022-10-15T23:36:55.278Z,5.50
2022-10-15T23:39:25.008Z,4.93
2022-10-15T23:41:52.207Z,6.72
2022-10-15T23:44:19.207Z,5.25
2022-10-15T23:46:46.230Z,10.57
2022-10-15T23:49:13.563Z,6.00
2022-10-15T23:51:40.984Z,7.93
2022-10-15T23:54:18.317Z,4.28
2022-10-15T23:56:46.332Z,8.40
2022-10-15T23:59:12.902Z,7.30
